sensor_id;sensor_type;location;lat;lon;timestamp;temperature;humidity
56044;DHT22;41912;51.022;3.664;2023-05-29T00:02:07;16.80;99.90
56044;DHT22;41912;51.022;3.664;2023-05-29T00:04:33;16.80;99.90
56044;DHT22;41912;51.022;3.664;2023-05-29T00:06:58;16.70;99.90
56044;DHT22;41912;51.022;3.664;2023-05-29T00:09:24;16.70;99.90
56044;DHT22;41912;51.022;3.664;2023-05-29T00:11:50;16.60;99.90
56044;DHT22;41912;51.022;3.664;2023-05-29T00:14:18;16.60;99.90
56044;DHT22;41912;51.022;3.664;2023-05-29T00:16:45;16.50;99.90
56044;DHT22;41912;51.022;3.664;2023-05-29T00:19:13;16.60;99.90
56044;DHT22;41912;51.022;3.664;2023-05-29T00:21:39;16.60;99.90
56044;DHT22;41912;51.022;3.664;2023-05-29T00:24:06;16.60;99.90
56044;DHT22;41912;51.022;3.664;2023-05-29T00:26:31;16.50;99.90
56044;DHT22;41912;51.022;3.664;2023-05-29T00:28:57;16.50;99.90
56044;DHT22;41912;51.022;3.664;2023-05-29T00:31:22;16.40;99.90
56044;DHT22;41912;51.022;3.664;2023-05-29T00:33:49;16.50;99.90
56044;DHT22;41912;51.022;3.664;2023-05-29T00:36:15;16.50;99.90
56044;DHT22;41912;51.022;3.664;2023-05-29T00:38:41;16.40;99.90
56044;DHT22;41912;51.022;3.664;2023-05-29T00:41:07;16.30;99.90
56044;DHT22;41912;51.022;3.664;2023-05-29T00:43:33;16.20;99.90
56044;DHT22;41912;51.022;3.664;2023-05-29T00:45:59;16.20;99.90
56044;DHT22;41912;51.022;3.664;2023-05-29T00:48:25;16.10;99.90
56044;DHT22;41912;51.022;3.664;2023-05-29T00:50:51;16.00;99.90
56044;DHT22;41912;51.022;3.664;2023-05-29T00:53:17;16.00;99.90
56044;DHT22;41912;51.022;3.664;2023-05-29T00:55:43;16.00;99.90
56044;DHT22;41912;51.022;3.664;2023-05-29T00:58:08;16.00;99.90
56044;DHT22;41912;51.022;3.664;2023-05-29T01:00:35;16.00;99.90
56044;DHT22;41912;51.022;3.664;2023-05-29T01:03:03;16.00;99.90
56044;DHT22;41912;51.022;3.664;2023-05-29T01:05:33;16.00;99.90
56044;DHT22;41912;51.022;3.664;2023-05-29T01:07:59;15.90;99.90
56044;DHT22;41912;51.022;3.664;2023-05-29T01:10:25;16.00;99.90
56044;DHT22;41912;51.022;3.664;2023-05-29T01:13:07;16.00;99.90
56044;DHT22;41912;51.022;3.664;2023-05-29T01:18:34;16.00;99.90
56044;DHT22;41912;51.022;3.664;2023-05-29T01:21:17;16.00;99.90
56044;DHT22;41912;51.022;3.664;2023-05-29T01:26:51;16.10;99.90
56044;DHT22;41912;51.022;3.664;2023-05-29T01:29:28;16.00;99.90
56044;DHT22;41912;51.022;3.664;2023-05-29T01:31:57;16.00;99.90
56044;DHT22;41912;51.022;3.664;2023-05-29T01:34:23;15.90;99.90
56044;DHT22;41912;51.022;3.664;2023-05-29T01:36:49;15.90;99.90
56044;DHT22;41912;51.022;3.664;2023-05-29T01:39:15;15.90;99.90
56044;DHT22;41912;51.022;3.664;2023-05-29T01:41:45;15.80;99.90
56044;DHT22;41912;51.022;3.664;2023-05-29T01:44:11;15.70;99.90
56044;DHT22;41912;51.022;3.664;2023-05-29T01:46:38;15.70;99.90
56044;DHT22;41912;51.022;3.664;2023-05-29T01:49:05;15.60;99.90
56044;DHT22;41912;51.022;3.664;2023-05-29T01:51:30;15.50;99.90
56044;DHT22;41912;51.022;3.664;2023-05-29T01:53:57;15.50;99.90
56044;DHT22;41912;51.022;3.664;2023-05-29T01:56:24;15.50;99.90
56044;DHT22;41912;51.022;3.664;2023-05-29T01:58:53;15.30;99.60
56044;DHT22;41912;51.022;3.664;2023-05-29T02:01:20;15.30;99.50
56044;DHT22;41912;51.022;3.664;2023-05-29T02:03:46;15.30;99.40
56044;DHT22;41912;51.022;3.664;2023-05-29T02:06:12;15.10;99.60
56044;DHT22;41912;51.022;3.664;2023-05-29T02:08:37;15.00;99.70
56044;DHT22;41912;51.022;3.664;2023-05-29T02:11:03;14.90;99.70
56044;DHT22;41912;51.022;3.664;2023-05-29T02:13:29;14.90;99.60
56044;DHT22;41912;51.022;3.664;2023-05-29T02:15:54;15.00;99.40
56044;DHT22;41912;51.022;3.664;2023-05-29T02:18:20;15.00;99.20
56044;DHT22;41912;51.022;3.664;2023-05-29T02:20:46;15.00;98.90
56044;DHT22;41912;51.022;3.664;2023-05-29T02:23:11;14.90;99.20
56044;DHT22;41912;51.022;3.664;2023-05-29T02:25:37;14.90;99.20
56044;DHT22;41912;51.022;3.664;2023-05-29T02:28:04;14.90;99.20
56044;DHT22;41912;51.022;3.664;2023-05-29T02:30:30;14.80;99.10
56044;DHT22;41912;51.022;3.664;2023-05-29T02:32:56;14.80;99.40
56044;DHT22;41912;51.022;3.664;2023-05-29T02:35:21;14.80;99.10
56044;DHT22;41912;51.022;3.664;2023-05-29T02:37:51;14.70;99.20
56044;DHT22;41912;51.022;3.664;2023-05-29T02:40:18;14.70;99.20
56044;DHT22;41912;51.022;3.664;2023-05-29T02:42:44;14.80;99.30
56044;DHT22;41912;51.022;3.664;2023-05-29T02:45:10;14.70;99.20
56044;DHT22;41912;51.022;3.664;2023-05-29T02:47:36;14.80;99.20
56044;DHT22;41912;51.022;3.664;2023-05-29T02:50:02;14.70;99.20
56044;DHT22;41912;51.022;3.664;2023-05-29T02:52:28;14.70;99.30
56044;DHT22;41912;51.022;3.664;2023-05-29T02:54:54;14.80;99.60
56044;DHT22;41912;51.022;3.664;2023-05-29T02:57:24;14.70;99.10
56044;DHT22;41912;51.022;3.664;2023-05-29T02:59:50;14.70;98.90
56044;DHT22;41912;51.022;3.664;2023-05-29T03:02:17;14.60;98.90
56044;DHT22;41912;51.022;3.664;2023-05-29T03:04:43;14.50;99.00
56044;DHT22;41912;51.022;3.664;2023-05-29T03:07:09;14.50;99.00
56044;DHT22;41912;51.022;3.664;2023-05-29T03:09:35;14.40;98.90
56044;DHT22;41912;51.022;3.664;2023-05-29T03:12:01;14.50;98.80
56044;DHT22;41912;51.022;3.664;2023-05-29T03:14:27;14.40;98.80
56044;DHT22;41912;51.022;3.664;2023-05-29T03:16:53;14.40;98.80
56044;DHT22;41912;51.022;3.664;2023-05-29T03:19:19;14.40;99.00
56044;DHT22;41912;51.022;3.664;2023-05-29T03:21:44;14.40;99.10
56044;DHT22;41912;51.022;3.664;2023-05-29T03:24:10;14.30;98.90
56044;DHT22;41912;51.022;3.664;2023-05-29T03:26:36;14.40;98.80
56044;DHT22;41912;51.022;3.664;2023-05-29T03:29:02;14.20;98.80
56044;DHT22;41912;51.022;3.664;2023-05-29T03:31:28;14.30;98.80
56044;DHT22;41912;51.022;3.664;2023-05-29T03:33:53;14.30;98.90
56044;DHT22;41912;51.022;3.664;2023-05-29T03:36:19;14.20;98.80
56044;DHT22;41912;51.022;3.664;2023-05-29T03:38:45;14.20;99.30
56044;DHT22;41912;51.022;3.664;2023-05-29T03:41:10;14.10;99.20
56044;DHT22;41912;51.022;3.664;2023-05-29T03:43:37;14.00;99.10
56044;DHT22;41912;51.022;3.664;2023-05-29T03:46:02;14.10;99.20
56044;DHT22;41912;51.022;3.664;2023-05-29T03:48:28;14.00;99.20
56044;DHT22;41912;51.022;3.664;2023-05-29T03:50:54;14.10;99.40
56044;DHT22;41912;51.022;3.664;2023-05-29T03:53:19;14.00;99.40
56044;DHT22;41912;51.022;3.664;2023-05-29T03:55:45;14.00;99.40
56044;DHT22;41912;51.022;3.664;2023-05-29T03:58:10;14.00;99.40
56044;DHT22;41912;51.022;3.664;2023-05-29T04:00:38;14.00;99.50
56044;DHT22;41912;51.022;3.664;2023-05-29T04:03:03;14.10;99.50
56044;DHT22;41912;51.022;3.664;2023-05-29T04:05:29;14.00;99.40
56044;DHT22;41912;51.022;3.664;2023-05-29T04:07:55;14.00;99.30
56044;DHT22;41912;51.022;3.664;2023-05-29T04:10:21;14.00;99.60
56044;DHT22;41912;51.022;3.664;2023-05-29T04:12:47;13.90;99.70
56044;DHT22;41912;51.022;3.664;2023-05-29T04:15:12;13.80;99.90
56044;DHT22;41912;51.022;3.664;2023-05-29T04:17:38;13.70;99.90
56044;DHT22;41912;51.022;3.664;2023-05-29T04:20:04;13.70;99.90
56044;DHT22;41912;51.022;3.664;2023-05-29T04:22:35;13.60;99.90
56044;DHT22;41912;51.022;3.664;2023-05-29T04:25:01;13.60;99.90
56044;DHT22;41912;51.022;3.664;2023-05-29T04:27:29;13.60;99.90
56044;DHT22;41912;51.022;3.664;2023-05-29T04:29:55;13.70;99.90
56044;DHT22;41912;51.022;3.664;2023-05-29T04:32:21;13.70;99.90
56044;DHT22;41912;51.022;3.664;2023-05-29T04:34:47;13.60;99.90
56044;DHT22;41912;51.022;3.664;2023-05-29T04:37:13;13.70;99.90
56044;DHT22;41912;51.022;3.664;2023-05-29T04:39:40;13.70;99.90
56044;DHT22;41912;51.022;3.664;2023-05-29T04:42:06;13.70;99.90
56044;DHT22;41912;51.022;3.664;2023-05-29T04:44:32;13.80;99.90
56044;DHT22;41912;51.022;3.664;2023-05-29T04:46:58;13.80;99.90
56044;DHT22;41912;51.022;3.664;2023-05-29T04:49:24;13.70;99.90
56044;DHT22;41912;51.022;3.664;2023-05-29T04:51:50;13.70;99.90
56044;DHT22;41912;51.022;3.664;2023-05-29T04:54:18;13.70;99.90
56044;DHT22;41912;51.022;3.664;2023-05-29T04:56:45;13.70;99.90
56044;DHT22;41912;51.022;3.664;2023-05-29T04:59:11;13.60;99.90
56044;DHT22;41912;51.022;3.664;2023-05-29T05:01:37;13.60;99.90
56044;DHT22;41912;51.022;3.664;2023-05-29T05:04:03;13.60;99.90
56044;DHT22;41912;51.022;3.664;2023-05-29T05:06:29;13.60;99.90
56044;DHT22;41912;51.022;3.664;2023-05-29T05:08:54;13.60;99.90
56044;DHT22;41912;51.022;3.664;2023-05-29T05:11:22;13.70;99.90
56044;DHT22;41912;51.022;3.664;2023-05-29T05:13:49;13.70;99.90
56044;DHT22;41912;51.022;3.664;2023-05-29T05:16:15;13.60;99.90
56044;DHT22;41912;51.022;3.664;2023-05-29T05:18:43;13.70;99.90
56044;DHT22;41912;51.022;3.664;2023-05-29T05:21:08;13.70;99.90
56044;DHT22;41912;51.022;3.664;2023-05-29T05:23:34;13.60;99.90
56044;DHT22;41912;51.022;3.664;2023-05-29T05:26:00;13.50;99.90
56044;DHT22;41912;51.022;3.664;2023-05-29T05:28:25;13.60;99.90
56044;DHT22;41912;51.022;3.664;2023-05-29T05:30:51;13.60;99.90
56044;DHT22;41912;51.022;3.664;2023-05-29T05:33:17;13.60;99.90
56044;DHT22;41912;51.022;3.664;2023-05-29T05:35:42;13.70;99.90
56044;DHT22;41912;51.022;3.664;2023-05-29T05:38:08;13.70;99.90
56044;DHT22;41912;51.022;3.664;2023-05-29T05:40:34;13.80;99.90
56044;DHT22;41912;51.022;3.664;2023-05-29T05:43:00;13.80;99.90
56044;DHT22;41912;51.022;3.664;2023-05-29T05:45:25;13.80;99.90
56044;DHT22;41912;51.022;3.664;2023-05-29T05:47:51;13.80;99.90
56044;DHT22;41912;51.022;3.664;2023-05-29T05:50:17;13.90;99.90
56044;DHT22;41912;51.022;3.664;2023-05-29T05:52:42;14.00;99.90
56044;DHT22;41912;51.022;3.664;2023-05-29T05:55:08;14.00;99.90
56044;DHT22;41912;51.022;3.664;2023-05-29T05:57:34;14.00;99.90
56044;DHT22;41912;51.022;3.664;2023-05-29T06:00:01;14.00;99.90
56044;DHT22;41912;51.022;3.664;2023-05-29T06:02:29;14.00;99.90
56044;DHT22;41912;51.022;3.664;2023-05-29T06:04:55;14.00;99.70
56044;DHT22;41912;51.022;3.664;2023-05-29T06:07:21;14.10;99.90
56044;DHT22;41912;51.022;3.664;2023-05-29T06:09:47;14.00;99.80
56044;DHT22;41912;51.022;3.664;2023-05-29T06:12:12;14.10;99.90
56044;DHT22;41912;51.022;3.664;2023-05-29T06:14:38;14.20;99.70
56044;DHT22;41912;51.022;3.664;2023-05-29T06:17:04;14.20;99.70
56044;DHT22;41912;51.022;3.664;2023-05-29T06:19:29;14.10;99.70
56044;DHT22;41912;51.022;3.664;2023-05-29T06:21:55;14.20;99.80
56044;DHT22;41912;51.022;3.664;2023-05-29T06:24:21;14.20;99.80
56044;DHT22;41912;51.022;3.664;2023-05-29T06:26:46;14.30;99.90
56044;DHT22;41912;51.022;3.664;2023-05-29T06:29:12;14.30;99.80
56044;DHT22;41912;51.022;3.664;2023-05-29T06:31:38;14.30;99.70
56044;DHT22;41912;51.022;3.664;2023-05-29T06:34:03;14.40;99.60
56044;DHT22;41912;51.022;3.664;2023-05-29T06:36:29;14.50;99.70
56044;DHT22;41912;51.022;3.664;2023-05-29T06:38:54;14.50;99.40
56044;DHT22;41912;51.022;3.664;2023-05-29T06:41:20;14.60;99.40
56044;DHT22;41912;51.022;3.664;2023-05-29T06:43:46;14.60;99.10
56044;DHT22;41912;51.022;3.664;2023-05-29T06:46:12;14.60;99.40
56044;DHT22;41912;51.022;3.664;2023-05-29T06:48:38;14.60;99.10
56044;DHT22;41912;51.022;3.664;2023-05-29T06:51:03;14.60;99.20
56044;DHT22;41912;51.022;3.664;2023-05-29T06:53:37;14.60;99.10
56044;DHT22;41912;51.022;3.664;2023-05-29T06:56:04;14.70;99.10
56044;DHT22;41912;51.022;3.664;2023-05-29T06:58:31;14.80;98.80
56044;DHT22;41912;51.022;3.664;2023-05-29T07:00:57;14.80;98.70
56044;DHT22;41912;51.022;3.664;2023-05-29T07:03:25;14.90;98.90
56044;DHT22;41912;51.022;3.664;2023-05-29T07:05:50;14.90;99.00
56044;DHT22;41912;51.022;3.664;2023-05-29T07:08:16;15.00;98.50
56044;DHT22;41912;51.022;3.664;2023-05-29T07:10:41;15.00;98.20
56044;DHT22;41912;51.022;3.664;2023-05-29T07:13:07;15.00;98.50
56044;DHT22;41912;51.022;3.664;2023-05-29T07:15:33;15.20;98.80
56044;DHT22;41912;51.022;3.664;2023-05-29T07:17:59;15.30;98.50
56044;DHT22;41912;51.022;3.664;2023-05-29T07:20:24;15.30;98.00
56044;DHT22;41912;51.022;3.664;2023-05-29T07:22:50;15.20;97.90
56044;DHT22;41912;51.022;3.664;2023-05-29T07:25:15;15.30;98.10
56044;DHT22;41912;51.022;3.664;2023-05-29T07:27:41;15.30;97.70
56044;DHT22;41912;51.022;3.664;2023-05-29T07:30:07;15.30;97.40
56044;DHT22;41912;51.022;3.664;2023-05-29T07:32:33;15.30;97.40
56044;DHT22;41912;51.022;3.664;2023-05-29T07:34:59;15.30;97.50
56044;DHT22;41912;51.022;3.664;2023-05-29T07:37:25;15.40;97.50
56044;DHT22;41912;51.022;3.664;2023-05-29T07:39:50;15.50;97.30
56044;DHT22;41912;51.022;3.664;2023-05-29T07:42:16;15.60;96.60
56044;DHT22;41912;51.022;3.664;2023-05-29T07:44:42;15.60;96.70
56044;DHT22;41912;51.022;3.664;2023-05-29T07:47:11;15.60;96.60
56044;DHT22;41912;51.022;3.664;2023-05-29T07:49:37;15.70;97.10
56044;DHT22;41912;51.022;3.664;2023-05-29T07:52:03;15.80;96.70
56044;DHT22;41912;51.022;3.664;2023-05-29T07:54:30;15.80;96.80
56044;DHT22;41912;51.022;3.664;2023-05-29T07:57:00;15.90;96.80
56044;DHT22;41912;51.022;3.664;2023-05-29T07:59:27;15.90;96.70
56044;DHT22;41912;51.022;3.664;2023-05-29T08:01:54;16.00;96.70
56044;DHT22;41912;51.022;3.664;2023-05-29T08:04:23;16.00;96.40
56044;DHT22;41912;51.022;3.664;2023-05-29T08:06:49;16.10;96.10
56044;DHT22;41912;51.022;3.664;2023-05-29T08:09:15;16.10;96.50
56044;DHT22;41912;51.022;3.664;2023-05-29T08:11:40;16.10;96.40
56044;DHT22;41912;51.022;3.664;2023-05-29T08:14:06;16.20;96.70
56044;DHT22;41912;51.022;3.664;2023-05-29T08:16:32;16.20;96.20
56044;DHT22;41912;51.022;3.664;2023-05-29T08:18:58;16.30;96.60
56044;DHT22;41912;51.022;3.664;2023-05-29T08:21:24;16.30;96.10
56044;DHT22;41912;51.022;3.664;2023-05-29T08:23:50;16.40;95.50
56044;DHT22;41912;51.022;3.664;2023-05-29T08:26:16;16.40;95.80
56044;DHT22;41912;51.022;3.664;2023-05-29T08:28:41;16.40;95.30
56044;DHT22;41912;51.022;3.664;2023-05-29T08:31:07;16.40;94.50
56044;DHT22;41912;51.022;3.664;2023-05-29T08:33:33;16.40;94.70
56044;DHT22;41912;51.022;3.664;2023-05-29T08:35:59;16.40;95.20
56044;DHT22;41912;51.022;3.664;2023-05-29T08:38:25;16.50;95.00
56044;DHT22;41912;51.022;3.664;2023-05-29T08:40:51;16.50;94.80
56044;DHT22;41912;51.022;3.664;2023-05-29T08:43:23;16.60;95.50
56044;DHT22;41912;51.022;3.664;2023-05-29T08:46:02;16.70;94.70
56044;DHT22;41912;51.022;3.664;2023-05-29T08:48:29;16.70;94.40
56044;DHT22;41912;51.022;3.664;2023-05-29T08:50:56;16.90;94.40
56044;DHT22;41912;51.022;3.664;2023-05-29T08:53:24;16.90;94.10
56044;DHT22;41912;51.022;3.664;2023-05-29T08:55:51;16.90;94.10
56044;DHT22;41912;51.022;3.664;2023-05-29T08:58:19;17.00;94.40
56044;DHT22;41912;51.022;3.664;2023-05-29T09:00:51;17.10;94.50
56044;DHT22;41912;51.022;3.664;2023-05-29T09:03:17;17.20;94.80
56044;DHT22;41912;51.022;3.664;2023-05-29T09:05:44;17.30;94.80
56044;DHT22;41912;51.022;3.664;2023-05-29T09:08:10;17.40;94.10
56044;DHT22;41912;51.022;3.664;2023-05-29T09:10:41;17.40;93.80
56044;DHT22;41912;51.022;3.664;2023-05-29T09:13:09;17.50;94.40
56044;DHT22;41912;51.022;3.664;2023-05-29T09:15:35;17.50;93.20
56044;DHT22;41912;51.022;3.664;2023-05-29T09:18:04;17.50;93.80
56044;DHT22;41912;51.022;3.664;2023-05-29T09:20:29;17.50;94.00
56044;DHT22;41912;51.022;3.664;2023-05-29T09:23:03;17.60;93.60
56044;DHT22;41912;51.022;3.664;2023-05-29T09:25:33;18.00;94.60
56044;DHT22;41912;51.022;3.664;2023-05-29T09:28:00;17.80;93.60
56044;DHT22;41912;51.022;3.664;2023-05-29T09:30:45;18.00;94.30
56044;DHT22;41912;51.022;3.664;2023-05-29T09:33:15;18.10;93.60
56044;DHT22;41912;51.022;3.664;2023-05-29T09:35:46;18.10;92.50
56044;DHT22;41912;51.022;3.664;2023-05-29T09:38:15;18.10;93.50
56044;DHT22;41912;51.022;3.664;2023-05-29T09:40:41;17.90;92.70
56044;DHT22;41912;51.022;3.664;2023-05-29T09:43:14;17.90;93.20
56044;DHT22;41912;51.022;3.664;2023-05-29T09:45:44;18.00;93.80
56044;DHT22;41912;51.022;3.664;2023-05-29T09:48:14;18.10;93.40
56044;DHT22;41912;51.022;3.664;2023-05-29T09:50:40;18.10;93.30
56044;DHT22;41912;51.022;3.664;2023-05-29T09:53:23;18.10;92.70
56044;DHT22;41912;51.022;3.664;2023-05-29T09:55:51;18.10;92.70
56044;DHT22;41912;51.022;3.664;2023-05-29T09:58:23;18.20;93.20
56044;DHT22;41912;51.022;3.664;2023-05-29T10:00:50;18.30;93.60
56044;DHT22;41912;51.022;3.664;2023-05-29T10:03:19;18.50;93.90
56044;DHT22;41912;51.022;3.664;2023-05-29T10:05:51;18.60;93.10
56044;DHT22;41912;51.022;3.664;2023-05-29T10:08:20;18.60;92.60
56044;DHT22;41912;51.022;3.664;2023-05-29T10:10:48;18.70;91.90
56044;DHT22;41912;51.022;3.664;2023-05-29T10:13:15;18.60;92.00
56044;DHT22;41912;51.022;3.664;2023-05-29T10:15:44;18.60;92.10
56044;DHT22;41912;51.022;3.664;2023-05-29T10:18:20;18.60;92.40
56044;DHT22;41912;51.022;3.664;2023-05-29T10:20:51;18.70;92.30
56044;DHT22;41912;51.022;3.664;2023-05-29T10:23:21;18.70;92.00
56044;DHT22;41912;51.022;3.664;2023-05-29T10:25:55;18.70;91.40
56044;DHT22;41912;51.022;3.664;2023-05-29T10:28:25;18.70;91.60
56044;DHT22;41912;51.022;3.664;2023-05-29T10:30:57;18.70;91.30
56044;DHT22;41912;51.022;3.664;2023-05-29T10:36:07;18.90;92.00
56044;DHT22;41912;51.022;3.664;2023-05-29T10:38:35;19.00;91.30
56044;DHT22;41912;51.022;3.664;2023-05-29T10:43:59;19.20;91.30
56044;DHT22;41912;51.022;3.664;2023-05-29T10:49:18;19.20;90.40
56044;DHT22;41912;51.022;3.664;2023-05-29T10:51:44;19.20;90.30
56044;DHT22;41912;51.022;3.664;2023-05-29T10:54:10;19.20;90.50
56044;DHT22;41912;51.022;3.664;2023-05-29T10:56:36;19.30;90.10
56044;DHT22;41912;51.022;3.664;2023-05-29T10:59:02;19.50;90.30
56044;DHT22;41912;51.022;3.664;2023-05-29T11:01:29;19.60;89.50
56044;DHT22;41912;51.022;3.664;2023-05-29T11:06:43;19.70;89.90
56044;DHT22;41912;51.022;3.664;2023-05-29T11:09:34;19.70;89.20
56044;DHT22;41912;51.022;3.664;2023-05-29T11:15:07;20.00;88.40
56044;DHT22;41912;51.022;3.664;2023-05-29T11:20:04;20.00;87.10
56044;DHT22;41912;51.022;3.664;2023-05-29T11:25:22;20.10;87.90
56044;DHT22;41912;51.022;3.664;2023-05-29T11:27:47;20.10;89.30
56044;DHT22;41912;51.022;3.664;2023-05-29T11:30:14;20.30;87.30
56044;DHT22;41912;51.022;3.664;2023-05-29T11:32:40;20.40;86.50
56044;DHT22;41912;51.022;3.664;2023-05-29T11:35:09;20.40;87.80
56044;DHT22;41912;51.022;3.664;2023-05-29T11:37:39;20.40;85.00
56044;DHT22;41912;51.022;3.664;2023-05-29T11:40:06;20.50;86.30
56044;DHT22;41912;51.022;3.664;2023-05-29T11:42:46;20.60;85.10
56044;DHT22;41912;51.022;3.664;2023-05-29T11:45:21;20.70;85.90
56044;DHT22;41912;51.022;3.664;2023-05-29T11:47:54;20.80;85.90
56044;DHT22;41912;51.022;3.664;2023-05-29T11:50:21;20.90;84.40
56044;DHT22;41912;51.022;3.664;2023-05-29T11:52:47;20.80;84.90
56044;DHT22;41912;51.022;3.664;2023-05-29T11:55:13;20.90;84.20
56044;DHT22;41912;51.022;3.664;2023-05-29T11:57:38;20.90;86.40
56044;DHT22;41912;51.022;3.664;2023-05-29T12:00:05;20.90;85.00
56044;DHT22;41912;51.022;3.664;2023-05-29T12:02:36;21.00;83.20
56044;DHT22;41912;51.022;3.664;2023-05-29T12:05:03;21.10;84.70
56044;DHT22;41912;51.022;3.664;2023-05-29T12:07:30;21.20;85.50
56044;DHT22;41912;51.022;3.664;2023-05-29T12:09:55;21.30;83.50
56044;DHT22;41912;51.022;3.664;2023-05-29T12:12:23;21.30;81.60
56044;DHT22;41912;51.022;3.664;2023-05-29T12:14:52;21.50;83.10
56044;DHT22;41912;51.022;3.664;2023-05-29T12:17:19;21.60;83.60
56044;DHT22;41912;51.022;3.664;2023-05-29T12:19:45;21.60;83.30
56044;DHT22;41912;51.022;3.664;2023-05-29T12:22:11;21.70;80.30
56044;DHT22;41912;51.022;3.664;2023-05-29T12:24:37;21.50;81.90
56044;DHT22;41912;51.022;3.664;2023-05-29T12:27:06;21.60;80.60
56044;DHT22;41912;51.022;3.664;2023-05-29T12:29:35;21.60;82.90
56044;DHT22;41912;51.022;3.664;2023-05-29T12:32:01;21.70;82.50
56044;DHT22;41912;51.022;3.664;2023-05-29T12:34:34;21.80;82.70
56044;DHT22;41912;51.022;3.664;2023-05-29T12:37:09;21.90;81.30
56044;DHT22;41912;51.022;3.664;2023-05-29T12:39:39;21.80;80.60
56044;DHT22;41912;51.022;3.664;2023-05-29T12:42:05;21.80;78.70
56044;DHT22;41912;51.022;3.664;2023-05-29T12:44:33;21.70;78.20
56044;DHT22;41912;51.022;3.664;2023-05-29T12:46:58;21.70;81.70
56044;DHT22;41912;51.022;3.664;2023-05-29T12:49:24;21.70;81.70
56044;DHT22;41912;51.022;3.664;2023-05-29T12:51:51;21.80;81.70
56044;DHT22;41912;51.022;3.664;2023-05-29T12:54:18;21.80;80.00
56044;DHT22;41912;51.022;3.664;2023-05-29T12:56:44;21.70;81.20
56044;DHT22;41912;51.022;3.664;2023-05-29T12:59:11;21.80;79.30
56044;DHT22;41912;51.022;3.664;2023-05-29T13:01:37;21.80;78.70
56044;DHT22;41912;51.022;3.664;2023-05-29T13:04:04;21.70;78.30
56044;DHT22;41912;51.022;3.664;2023-05-29T13:06:35;21.70;78.20
56044;DHT22;41912;51.022;3.664;2023-05-29T13:09:02;21.70;76.90
56044;DHT22;41912;51.022;3.664;2023-05-29T13:11:28;21.80;80.10
56044;DHT22;41912;51.022;3.664;2023-05-29T13:13:53;22.00;78.80
56044;DHT22;41912;51.022;3.664;2023-05-29T13:16:19;22.00;78.20
56044;DHT22;41912;51.022;3.664;2023-05-29T13:18:45;22.10;78.00
56044;DHT22;41912;51.022;3.664;2023-05-29T13:21:10;22.10;78.40
56044;DHT22;41912;51.022;3.664;2023-05-29T13:23:36;22.20;75.70
56044;DHT22;41912;51.022;3.664;2023-05-29T13:26:03;22.30;76.00
56044;DHT22;41912;51.022;3.664;2023-05-29T13:28:29;22.40;76.10
56044;DHT22;41912;51.022;3.664;2023-05-29T13:30:54;22.40;75.00
56044;DHT22;41912;51.022;3.664;2023-05-29T13:33:20;22.50;77.10
56044;DHT22;41912;51.022;3.664;2023-05-29T13:35:46;22.40;74.50
56044;DHT22;41912;51.022;3.664;2023-05-29T13:38:11;22.30;74.40
56044;DHT22;41912;51.022;3.664;2023-05-29T13:40:37;22.20;72.60
56044;DHT22;41912;51.022;3.664;2023-05-29T13:43:03;22.10;72.00
56044;DHT22;41912;51.022;3.664;2023-05-29T13:45:28;22.20;73.30
56044;DHT22;41912;51.022;3.664;2023-05-29T13:47:55;22.30;72.60
56044;DHT22;41912;51.022;3.664;2023-05-29T13:50:21;22.20;70.80
56044;DHT22;41912;51.022;3.664;2023-05-29T13:52:49;21.90;71.20
56044;DHT22;41912;51.022;3.664;2023-05-29T13:55:15;22.00;70.80
56044;DHT22;41912;51.022;3.664;2023-05-29T13:57:40;22.00;72.00
56044;DHT22;41912;51.022;3.664;2023-05-29T14:00:10;22.10;70.70
56044;DHT22;41912;51.022;3.664;2023-05-29T14:02:36;22.10;72.00
56044;DHT22;41912;51.022;3.664;2023-05-29T14:05:02;22.20;70.40
56044;DHT22;41912;51.022;3.664;2023-05-29T14:07:27;22.30;69.40
56044;DHT22;41912;51.022;3.664;2023-05-29T14:09:53;22.20;67.20
56044;DHT22;41912;51.022;3.664;2023-05-29T14:12:19;22.10;69.70
56044;DHT22;41912;51.022;3.664;2023-05-29T14:14:44;22.20;71.10
56044;DHT22;41912;51.022;3.664;2023-05-29T14:17:10;22.20;68.10
56044;DHT22;41912;51.022;3.664;2023-05-29T14:19:37;22.20;67.30
56044;DHT22;41912;51.022;3.664;2023-05-29T14:22:03;22.20;67.70
56044;DHT22;41912;51.022;3.664;2023-05-29T14:24:29;22.20;68.50
56044;DHT22;41912;51.022;3.664;2023-05-29T14:26:55;22.30;66.00
56044;DHT22;41912;51.022;3.664;2023-05-29T14:29:21;22.30;71.00
56044;DHT22;41912;51.022;3.664;2023-05-29T14:31:46;22.50;67.40
56044;DHT22;41912;51.022;3.664;2023-05-29T14:34:12;22.60;68.00
56044;DHT22;41912;51.022;3.664;2023-05-29T14:36:39;22.60;67.20
56044;DHT22;41912;51.022;3.664;2023-05-29T14:39:05;22.70;69.20
56044;DHT22;41912;51.022;3.664;2023-05-29T14:41:31;22.60;66.40
56044;DHT22;41912;51.022;3.664;2023-05-29T14:43:57;22.50;68.50
56044;DHT22;41912;51.022;3.664;2023-05-29T14:46:24;22.50;70.10
56044;DHT22;41912;51.022;3.664;2023-05-29T14:48:51;22.50;68.30
56044;DHT22;41912;51.022;3.664;2023-05-29T14:51:16;22.50;69.10
56044;DHT22;41912;51.022;3.664;2023-05-29T14:53:44;22.70;69.40
56044;DHT22;41912;51.022;3.664;2023-05-29T14:56:10;22.60;68.80
56044;DHT22;41912;51.022;3.664;2023-05-29T14:58:35;22.50;69.70
56044;DHT22;41912;51.022;3.664;2023-05-29T15:01:01;22.50;70.20
56044;DHT22;41912;51.022;3.664;2023-05-29T15:03:26;22.50;69.80
56044;DHT22;41912;51.022;3.664;2023-05-29T15:05:52;22.40;69.40
56044;DHT22;41912;51.022;3.664;2023-05-29T15:08:19;22.30;70.00
56044;DHT22;41912;51.022;3.664;2023-05-29T15:10:45;22.30;69.80
56044;DHT22;41912;51.022;3.664;2023-05-29T15:13:10;22.30;72.00
56044;DHT22;41912;51.022;3.664;2023-05-29T15:15:36;22.20;71.50
56044;DHT22;41912;51.022;3.664;2023-05-29T15:18:01;22.30;71.70
56044;DHT22;41912;51.022;3.664;2023-05-29T15:20:27;22.20;70.90
56044;DHT22;41912;51.022;3.664;2023-05-29T15:22:53;22.10;71.10
56044;DHT22;41912;51.022;3.664;2023-05-29T15:25:20;22.20;71.50
56044;DHT22;41912;51.022;3.664;2023-05-29T15:27:46;22.20;70.60
56044;DHT22;41912;51.022;3.664;2023-05-29T15:30:17;22.20;69.40
56044;DHT22;41912;51.022;3.664;2023-05-29T15:32:46;22.10;70.60
56044;DHT22;41912;51.022;3.664;2023-05-29T15:35:14;22.00;70.50
56044;DHT22;41912;51.022;3.664;2023-05-29T15:37:42;22.00;72.40
56044;DHT22;41912;51.022;3.664;2023-05-29T15:40:08;22.00;71.20
56044;DHT22;41912;51.022;3.664;2023-05-29T15:42:37;22.00;71.90
56044;DHT22;41912;51.022;3.664;2023-05-29T15:45:04;21.90;72.80
56044;DHT22;41912;51.022;3.664;2023-05-29T15:47:30;21.90;72.30
56044;DHT22;41912;51.022;3.664;2023-05-29T15:49:57;21.80;72.90
56044;DHT22;41912;51.022;3.664;2023-05-29T15:52:24;21.80;72.80
56044;DHT22;41912;51.022;3.664;2023-05-29T15:54:49;21.90;72.90